sensor_id;sensor_type;location;lat;lon;timestamp;pressure;altitude;pressure_sealevel;temperature;humidity
41596;BME280;27283;52.504;13.358;2023-01-08T00:01:17;100591.59;;;9.87;69.73
41596;BME280;27283;52.504;13.358;2023-01-08T00:03:50;100589.44;;;9.90;69.05
41596;BME280;27283;52.504;13.358;2023-01-08T00:06:21;100590.91;;;9.76;69.56
41596;BME280;27283;52.504;13.358;2023-01-08T00:08:54;100576.66;;;9.84;69.36
41596;BME280;27283;52.504;13.358;2023-01-08T00:11:32;100581.03;;;9.85;68.92
41596;BME280;27283;52.504;13.358;2023-01-08T00:14:08;100575.78;;;9.59;70.17
41596;BME280;27283;52.504;13.358;2023-01-08T00:16:42;100573.97;;;9.68;70.17
41596;BME280;27283;52.504;13.358;2023-01-08T00:19:16;100578.69;;;9.82;69.10
41596;BME280;27283;52.504;13.358;2023-01-08T00:21:50;100580.44;;;9.49;70.51
41596;BME280;27283;52.504;13.358;2023-01-08T00:24:22;100571.56;;;9.56;70.29
41596;BME280;27283;52.504;13.358;2023-01-08T00:26:57;100561.03;;;9.63;69.99
41596;BME280;27283;52.504;13.358;2023-01-08T00:29:31;100562.16;;;9.52;70.15
41596;BME280;27283;52.504;13.358;2023-01-08T00:32:10;100562.97;;;9.36;70.69
41596;BME280;27283;52.504;13.358;2023-01-08T00:34:43;100551.41;;;9.52;70.56
41596;BME280;27283;52.504;13.358;2023-01-08T00:37:16;100550.31;;;9.63;69.49
41596;BME280;27283;52.504;13.358;2023-01-08T00:39:48;100546.06;;;9.52;70.52
41596;BME280;27283;52.504;13.358;2023-01-08T00:42:23;100537.38;;;9.75;68.89
41596;BME280;27283;52.504;13.358;2023-01-08T00:44:56;100530.97;;;9.60;69.94
41596;BME280;27283;52.504;13.358;2023-01-08T00:47:28;100528.00;;;9.71;69.01
41596;BME280;27283;52.504;13.358;2023-01-08T00:50:00;100528.97;;;9.53;69.76
41596;BME280;27283;52.504;13.358;2023-01-08T00:53:00;100532.44;;;9.37;70.46
41596;BME280;27283;52.504;13.358;2023-01-08T00:55:32;100534.00;;;9.48;70.01
41596;BME280;27283;52.504;13.358;2023-01-08T00:58:07;100519.31;;;9.26;70.45
41596;BME280;27283;52.504;13.358;2023-01-08T01:00:41;100529.06;;;9.27;70.77
41596;BME280;27283;52.504;13.358;2023-01-08T01:03:13;100524.88;;;9.33;70.55
41596;BME280;27283;52.504;13.358;2023-01-08T01:05:46;100514.34;;;9.39;70.05
41596;BME280;27283;52.504;13.358;2023-01-08T01:08:18;100515.69;;;9.44;70.07
41596;BME280;27283;52.504;13.358;2023-01-08T01:10:50;100521.41;;;9.57;69.78
41596;BME280;27283;52.504;13.358;2023-01-08T01:13:27;100513.31;;;9.32;70.18
41596;BME280;27283;52.504;13.358;2023-01-08T01:16:00;100515.50;;;9.37;70.59
41596;BME280;27283;52.504;13.358;2023-01-08T01:18:32;100510.53;;;9.67;69.10
41596;BME280;27283;52.504;13.358;2023-01-08T01:21:10;100502.06;;;9.37;69.67
41596;BME280;27283;52.504;13.358;2023-01-08T01:23:45;100515.50;;;9.37;69.71
41596;BME280;27283;52.504;13.358;2023-01-08T01:26:19;100514.00;;;8.92;71.21
41596;BME280;27283;52.504;13.358;2023-01-08T01:28:55;100505.16;;;8.99;71.42
41596;BME280;27283;52.504;13.358;2023-01-08T01:31:29;100515.66;;;9.27;70.33
41596;BME280;27283;52.504;13.358;2023-01-08T01:34:04;100503.66;;;9.05;71.07
41596;BME280;27283;52.504;13.358;2023-01-08T01:36:36;100498.88;;;8.82;71.85
41596;BME280;27283;52.504;13.358;2023-01-08T01:39:08;100501.06;;;8.79;71.66
41596;BME280;27283;52.504;13.358;2023-01-08T01:41:42;100507.44;;;8.86;71.89
41596;BME280;27283;52.504;13.358;2023-01-08T01:44:35;100510.28;;;8.84;71.42
41596;BME280;27283;52.504;13.358;2023-01-08T01:47:18;100504.44;;;8.55;72.74
41596;BME280;27283;52.504;13.358;2023-01-08T01:50:01;100513.34;;;8.98;71.49
41596;BME280;27283;52.504;13.358;2023-01-08T01:52:53;100483.53;;;9.01;71.29
41596;BME280;27283;52.504;13.358;2023-01-08T01:55:30;100472.84;;;8.40;73.29
41596;BME280;27283;52.504;13.358;2023-01-08T01:58:06;100465.44;;;8.60;72.46
41596;BME280;27283;52.504;13.358;2023-01-08T02:00:43;100475.16;;;8.35;73.84
41596;BME280;27283;52.504;13.358;2023-01-08T02:03:15;100479.88;;;8.41;73.53
41596;BME280;27283;52.504;13.358;2023-01-08T02:05:52;100491.16;;;8.79;72.05
41596;BME280;27283;52.504;13.358;2023-01-08T02:08:31;100478.16;;;8.58;72.35
41596;BME280;27283;52.504;13.358;2023-01-08T02:11:09;100470.03;;;8.76;71.90
41596;BME280;27283;52.504;13.358;2023-01-08T02:13:47;100473.88;;;8.74;71.78
41596;BME280;27283;52.504;13.358;2023-01-08T02:16:29;100471.84;;;8.41;72.98
41596;BME280;27283;52.504;13.358;2023-01-08T02:19:15;100470.31;;;8.65;72.17
41596;BME280;27283;52.504;13.358;2023-01-08T02:21:59;100459.38;;;8.50;72.46
41596;BME280;27283;52.504;13.358;2023-01-08T02:24:45;100444.13;;;8.50;72.72
41596;BME280;27283;52.504;13.358;2023-01-08T02:27:23;100429.09;;;8.58;72.73
41596;BME280;27283;52.504;13.358;2023-01-08T02:29:57;100431.56;;;8.51;72.94
41596;BME280;27283;52.504;13.358;2023-01-08T02:32:35;100432.63;;;8.40;72.89
41596;BME280;27283;52.504;13.358;2023-01-08T02:35:09;100442.63;;;8.30;73.33
41596;BME280;27283;52.504;13.358;2023-01-08T02:37:42;100435.69;;;8.19;73.59
41596;BME280;27283;52.504;13.358;2023-01-08T02:40:21;100438.28;;;8.29;73.74
41596;BME280;27283;52.504;13.358;2023-01-08T02:43:04;100428.38;;;7.77;75.89
41596;BME280;27283;52.504;13.358;2023-01-08T02:45:43;100430.94;;;8.05;74.85
41596;BME280;27283;52.504;13.358;2023-01-08T02:48:21;100420.59;;;7.84;75.50
41596;BME280;27283;52.504;13.358;2023-01-08T02:51:05;100416.81;;;7.94;75.38
41596;BME280;27283;52.504;13.358;2023-01-08T02:53:42;100414.91;;;8.13;74.39
41596;BME280;27283;52.504;13.358;2023-01-08T02:56:18;100417.13;;;8.18;73.98
41596;BME280;27283;52.504;13.358;2023-01-08T02:58:55;100410.91;;;7.91;74.85
41596;BME280;27283;52.504;13.358;2023-01-08T03:01:30;100402.44;;;7.77;75.14
41596;BME280;27283;52.504;13.358;2023-01-08T03:04:08;100398.53;;;7.90;74.86
41596;BME280;27283;52.504;13.358;2023-01-08T03:06:44;100395.78;;;7.81;75.13
41596;BME280;27283;52.504;13.358;2023-01-08T03:09:17;100395.88;;;7.90;75.33
41596;BME280;27283;52.504;13.358;2023-01-08T03:11:53;100390.47;;;7.63;76.07
41596;BME280;27283;52.504;13.358;2023-01-08T03:14:35;100386.38;;;7.77;75.63
41596;BME280;27283;52.504;13.358;2023-01-08T03:17:13;100395.66;;;7.65;75.89
41596;BME280;27283;52.504;13.358;2023-01-08T03:19:51;100397.41;;;7.74;75.56
41596;BME280;27283;52.504;13.358;2023-01-08T03:22:25;100394.03;;;7.46;76.71
41596;BME280;27283;52.504;13.358;2023-01-08T03:24:58;100393.16;;;7.63;76.26
41596;BME280;27283;52.504;13.358;2023-01-08T03:27:34;100392.63;;;7.60;76.09
41596;BME280;27283;52.504;13.358;2023-01-08T03:30:12;100380.34;;;7.49;76.83
41596;BME280;27283;52.504;13.358;2023-01-08T03:32:46;100380.53;;;7.74;75.83
41596;BME280;27283;52.504;13.358;2023-01-08T03:35:22;100376.66;;;7.94;74.99
41596;BME280;27283;52.504;13.358;2023-01-08T03:37:59;100376.84;;;7.75;75.40
41596;BME280;27283;52.504;13.358;2023-01-08T03:40:38;100371.97;;;7.70;75.46
41596;BME280;27283;52.504;13.358;2023-01-08T03:43:12;100373.75;;;7.88;74.83
41596;BME280;27283;52.504;13.358;2023-01-08T03:45:48;100365.03;;;7.86;75.35
41596;BME280;27283;52.504;13.358;2023-01-08T03:48:22;100366.56;;;7.88;75.10
41596;BME280;27283;52.504;13.358;2023-01-08T03:50:55;100369.66;;;7.75;74.98
41596;BME280;27283;52.504;13.358;2023-01-08T03:53:28;100367.81;;;7.76;75.00
41596;BME280;27283;52.504;13.358;2023-01-08T03:56:00;100375.56;;;7.79;74.87
41596;BME280;27283;52.504;13.358;2023-01-08T03:58:32;100385.72;;;7.75;75.37
41596;BME280;27283;52.504;13.358;2023-01-08T04:01:07;100386.50;;;7.68;75.95
41596;BME280;27283;52.504;13.358;2023-01-08T04:03:39;100386.78;;;7.83;74.89
41596;BME280;27283;52.504;13.358;2023-01-08T04:06:11;100381.66;;;7.71;75.20
41596;BME280;27283;52.504;13.358;2023-01-08T04:08:46;100374.94;;;7.85;75.13
41596;BME280;27283;52.504;13.358;2023-01-08T04:11:18;100384.44;;;7.61;75.72
41596;BME280;27283;52.504;13.358;2023-01-08T04:13:51;100382.28;;;7.65;75.43
41596;BME280;27283;52.504;13.358;2023-01-08T04:16:26;100372.66;;;7.72;75.14
41596;BME280;27283;52.504;13.358;2023-01-08T04:18:59;100378.16;;;7.71;75.04
41596;BME280;27283;52.504;13.358;2023-01-08T04:21:31;100372.06;;;7.60;75.77
41596;BME280;27283;52.504;13.358;2023-01-08T04:24:04;100375.75;;;7.59;75.35
41596;BME280;27283;52.504;13.358;2023-01-08T04:26:36;100380.31;;;7.67;75.42
41596;BME280;27283;52.504;13.358;2023-01-08T04:29:10;100377.50;;;7.51;75.89
41596;BME280;27283;52.504;13.358;2023-01-08T04:31:45;100374.66;;;7.70;75.31
41596;BME280;27283;52.504;13.358;2023-01-08T04:34:18;100361.84;;;7.82;74.33
41596;BME280;27283;52.504;13.358;2023-01-08T04:36:50;100355.19;;;7.60;75.21
41596;BME280;27283;52.504;13.358;2023-01-08T04:39:34;100347.09;;;7.78;74.77
41596;BME280;27283;52.504;13.358;2023-01-08T04:42:06;100339.31;;;7.67;74.84
41596;BME280;27283;52.504;13.358;2023-01-08T04:44:39;100330.66;;;7.73;74.65
41596;BME280;27283;52.504;13.358;2023-01-08T04:47:14;100338.31;;;7.94;73.82
41596;BME280;27283;52.504;13.358;2023-01-08T04:49:46;100337.31;;;7.95;73.40
41596;BME280;27283;52.504;13.358;2023-01-08T04:52:18;100323.13;;;7.94;73.67
41596;BME280;27283;52.504;13.358;2023-01-08T04:54:51;100342.09;;;8.09;73.24
41596;BME280;27283;52.504;13.358;2023-01-08T04:57:23;100345.81;;;7.82;73.93
41596;BME280;27283;52.504;13.358;2023-01-08T04:59:55;100338.28;;;7.59;74.57
41596;BME280;27283;52.504;13.358;2023-01-08T05:02:30;100342.59;;;7.52;75.57
41596;BME280;27283;52.504;13.358;2023-01-08T05:05:04;100334.78;;;7.41;75.58
41596;BME280;27283;52.504;13.358;2023-01-08T05:07:36;100338.13;;;7.61;74.94
41596;BME280;27283;52.504;13.358;2023-01-08T05:10:09;100338.38;;;7.76;74.72
41596;BME280;27283;52.504;13.358;2023-01-08T05:12:41;100330.81;;;7.97;73.96
41596;BME280;27283;52.504;13.358;2023-01-08T05:15:14;100340.63;;;7.89;73.92
41596;BME280;27283;52.504;13.358;2023-01-08T05:17:57;100332.13;;;7.93;74.08
41596;BME280;27283;52.504;13.358;2023-01-08T05:20:30;100329.63;;;8.26;72.50
41596;BME280;27283;52.504;13.358;2023-01-08T05:23:13;100325.16;;;8.01;73.07
41596;BME280;27283;52.504;13.358;2023-01-08T05:25:45;100323.53;;;8.16;72.69
41596;BME280;27283;52.504;13.358;2023-01-08T05:28:18;100321.03;;;8.23;72.32
41596;BME280;27283;52.504;13.358;2023-01-08T05:31:04;100317.03;;;8.19;72.92
41596;BME280;27283;52.504;13.358;2023-01-08T05:33:39;100322.72;;;8.24;72.05
41596;BME280;27283;52.504;13.358;2023-01-08T05:36:12;100313.59;;;8.43;71.85
41596;BME280;27283;52.504;13.358;2023-01-08T05:38:44;100316.38;;;8.25;72.14
41596;BME280;27283;52.504;13.358;2023-01-08T05:41:16;100318.06;;;8.26;72.43
41596;BME280;27283;52.504;13.358;2023-01-08T05:43:48;100305.69;;;8.33;72.25
41596;BME280;27283;52.504;13.358;2023-01-08T05:46:21;100308.63;;;8.48;71.54
41596;BME280;27283;52.504;13.358;2023-01-08T05:48:56;100302.81;;;8.61;70.96
41596;BME280;27283;52.504;13.358;2023-01-08T05:51:28;100302.63;;;8.71;70.53
41596;BME280;27283;52.504;13.358;2023-01-08T05:54:00;100304.63;;;8.60;70.89
41596;BME280;27283;52.504;13.358;2023-01-08T05:56:32;100311.38;;;8.81;69.99
41596;BME280;27283;52.504;13.358;2023-01-08T05:59:04;100303.00;;;8.76;69.75
41596;BME280;27283;52.504;13.358;2023-01-08T06:01:36;100296.78;;;8.75;70.28
41596;BME280;27283;52.504;13.358;2023-01-08T06:04:11;100292.94;;;8.78;70.44
41596;BME280;27283;52.504;13.358;2023-01-08T06:06:43;100284.72;;;8.87;69.61
41596;BME280;27283;52.504;13.358;2023-01-08T06:09:15;100287.59;;;8.78;69.92
41596;BME280;27283;52.504;13.358;2023-01-08T06:11:47;100296.47;;;9.11;68.65
41596;BME280;27283;52.504;13.358;2023-01-08T06:14:20;100291.78;;;8.89;69.33
41596;BME280;27283;52.504;13.358;2023-01-08T06:16:53;100285.25;;;8.99;68.56
41596;BME280;27283;52.504;13.358;2023-01-08T06:19:28;100281.06;;;9.05;68.73
41596;BME280;27283;52.504;13.358;2023-01-08T06:22:00;100274.69;;;9.14;68.15
41596;BME280;27283;52.504;13.358;2023-01-08T06:24:32;100278.53;;;9.12;68.08
41596;BME280;27283;52.504;13.358;2023-01-08T06:27:04;100275.34;;;9.25;67.71
41596;BME280;27283;52.504;13.358;2023-01-08T06:29:36;100280.72;;;9.08;68.30
41596;BME280;27283;52.504;13.358;2023-01-08T06:32:08;100272.34;;;9.03;68.57
41596;BME280;27283;52.504;13.358;2023-01-08T06:34:42;100277.84;;;9.34;67.71
41596;BME280;27283;52.504;13.358;2023-01-08T06:37:15;100277.19;;;9.32;67.35
41596;BME280;27283;52.504;13.358;2023-01-08T06:39:46;100278.22;;;9.23;68.07
41596;BME280;27283;52.504;13.358;2023-01-08T06:42:18;100268.66;;;9.12;68.31
41596;BME280;27283;52.504;13.358;2023-01-08T06:44:50;100278.88;;;9.09;68.26
41596;BME280;27283;52.504;13.358;2023-01-08T06:47:22;100275.22;;;9.18;67.72
41596;BME280;27283;52.504;13.358;2023-01-08T06:49:57;100276.69;;;9.29;67.55
41596;BME280;27283;52.504;13.358;2023-01-08T06:52:29;100275.22;;;9.01;68.26
41596;BME280;27283;52.504;13.358;2023-01-08T06:55:01;100277.53;;;9.29;68.05
41596;BME280;27283;52.504;13.358;2023-01-08T06:57:34;100285.25;;;9.32;67.78
41596;BME280;27283;52.504;13.358;2023-01-08T07:00:10;100285.38;;;9.39;67.51
41596;BME280;27283;52.504;13.358;2023-01-08T07:02:42;100279.91;;;9.24;67.81
41596;BME280;27283;52.504;13.358;2023-01-08T07:05:17;100277.66;;;9.52;67.38
41596;BME280;27283;52.504;13.358;2023-01-08T07:07:49;100284.41;;;9.40;67.68
41596;BME280;27283;52.504;13.358;2023-01-08T07:10:22;100277.84;;;9.43;67.68
41596;BME280;27283;52.504;13.358;2023-01-08T07:12:54;100278.00;;;9.57;66.48
41596;BME280;27283;52.504;13.358;2023-01-08T07:15:26;100280.84;;;9.56;67.09
41596;BME280;27283;52.504;13.358;2023-01-08T07:17:58;100276.63;;;9.70;66.95
41596;BME280;27283;52.504;13.358;2023-01-08T07:20:33;100269.41;;;9.70;66.22
41596;BME280;27283;52.504;13.358;2023-01-08T07:23:08;100274.03;;;9.93;65.83
41596;BME280;27283;52.504;13.358;2023-01-08T07:26:19;100275.50;;;9.48;67.38
41596;BME280;27283;52.504;13.358;2023-01-08T07:28:51;100285.56;;;9.46;67.51
41596;BME280;27283;52.504;13.358;2023-01-08T07:31:23;100291.91;;;9.69;67.16
41596;BME280;27283;52.504;13.358;2023-01-08T07:34:42;100290.75;;;9.47;68.14
41596;BME280;27283;52.504;13.358;2023-01-08T07:37:16;100296.28;;;9.54;68.99
41596;BME280;27283;52.504;13.358;2023-01-08T07:39:48;100292.00;;;9.84;68.23
41596;BME280;27283;52.504;13.358;2023-01-08T07:42:20;100302.81;;;9.60;69.77
41596;BME280;27283;52.504;13.358;2023-01-08T07:50:33;100293.06;;;9.67;71.00
41596;BME280;27283;52.504;13.358;2023-01-08T07:53:12;100287.88;;;9.57;72.34
41596;BME280;27283;52.504;13.358;2023-01-08T07:55:45;100287.72;;;9.58;72.47
41596;BME280;27283;52.504;13.358;2023-01-08T07:58:17;100283.16;;;9.67;72.43
41596;BME280;27283;52.504;13.358;2023-01-08T08:00:49;100282.53;;;9.49;73.45
41596;BME280;27283;52.504;13.358;2023-01-08T08:03:22;100277.38;;;9.31;74.99
41596;BME280;27283;52.504;13.358;2023-01-08T08:05:55;100279.88;;;9.32;74.65
41596;BME280;27283;52.504;13.358;2023-01-08T08:08:33;100265.75;;;9.63;73.61
41596;BME280;27283;52.504;13.358;2023-01-08T08:11:05;100265.41;;;9.58;73.98
41596;BME280;27283;52.504;13.358;2023-01-08T08:13:38;100265.53;;;9.73;74.34
41596;BME280;27283;52.504;13.358;2023-01-08T08:16:13;100258.19;;;9.67;74.50
41596;BME280;27283;52.504;13.358;2023-01-08T08:18:45;100270.78;;;9.66;74.76
41596;BME280;27283;52.504;13.358;2023-01-08T08:21:17;100284.19;;;9.66;75.74
41596;BME280;27283;52.504;13.358;2023-01-08T08:23:54;100270.75;;;9.74;75.17
41596;BME280;27283;52.504;13.358;2023-01-08T08:26:26;100275.50;;;9.56;75.73
41596;BME280;27283;52.504;13.358;2023-01-08T08:28:58;100265.78;;;9.47;76.47
41596;BME280;27283;52.504;13.358;2023-01-08T08:31:31;100269.16;;;9.40;76.09
41596;BME280;27283;52.504;13.358;2023-01-08T08:34:26;100261.25;;;9.39;76.29
41596;BME280;27283;52.504;13.358;2023-01-08T08:36:59;100255.31;;;9.60;76.07
41596;BME280;27283;52.504;13.358;2023-01-08T08:39:35;100249.47;;;9.56;76.37
41596;BME280;27283;52.504;13.358;2023-01-08T08:42:08;100241.81;;;9.45;76.05
41596;BME280;27283;52.504;13.358;2023-01-08T08:44:40;100238.22;;;9.69;75.71
41596;BME280;27283;52.504;13.358;2023-01-08T08:47:12;100238.53;;;9.74;75.42
41596;BME280;27283;52.504;13.358;2023-01-08T08:49:45;100244.09;;;9.56;75.86
41596;BME280;27283;52.504;13.358;2023-01-08T08:52:49;100244.72;;;9.75;74.63
41596;BME280;27283;52.504;13.358;2023-01-08T08:55:33;100245.59;;;9.67;74.89
41596;BME280;27283;52.504;13.358;2023-01-08T08:58:08;100249.13;;;9.60;75.86
41596;BME280;27283;52.504;13.358;2023-01-08T09:00:42;100239.00;;;9.78;75.58
41596;BME280;27283;52.504;13.358;2023-01-08T09:03:15;100244.03;;;9.81;74.85
41596;BME280;27283;52.504;13.358;2023-01-08T09:06:16;100236.81;;;9.82;74.45
41596;BME280;27283;52.504;13.358;2023-01-08T09:08:48;100228.38;;;9.93;73.96
41596;BME280;27283;52.504;13.358;2023-01-08T09:11:47;100230.94;;;9.86;73.47
41596;BME280;27283;52.504;13.358;2023-01-08T09:14:19;100212.31;;;9.85;74.30
41596;BME280;27283;52.504;13.358;2023-01-08T09:16:51;100206.06;;;9.92;74.91
41596;BME280;27283;52.504;13.358;2023-01-08T09:19:24;100200.34;;;9.96;73.47
41596;BME280;27283;52.504;13.358;2023-01-08T09:21:56;100194.91;;;10.43;71.96
41596;BME280;27283;52.504;13.358;2023-01-08T09:24:29;100209.41;;;10.57;72.00
41596;BME280;27283;52.504;13.358;2023-01-08T09:27:04;100218.13;;;10.28;72.11
41596;BME280;27283;52.504;13.358;2023-01-08T09:29:39;100213.78;;;10.27;72.98
41596;BME280;27283;52.504;13.358;2023-01-08T09:32:11;100223.66;;;10.35;72.39
41596;BME280;27283;52.504;13.358;2023-01-08T09:34:43;100238.66;;;10.21;73.11
41596;BME280;27283;52.504;13.358;2023-01-08T09:37:15;100234.72;;;10.40;73.22
41596;BME280;27283;52.504;13.358;2023-01-08T09:39:48;100232.38;;;10.37;73.31
41596;BME280;27283;52.504;13.358;2023-01-08T09:42:33;100233.72;;;10.64;72.75
41596;BME280;27283;52.504;13.358;2023-01-08T09:45:14;100232.13;;;10.15;73.93
41596;BME280;27283;52.504;13.358;2023-01-08T09:47:51;100248.34;;;9.99;75.63
41596;BME280;27283;52.504;13.358;2023-01-08T09:50:26;100250.47;;;10.11;74.72
41596;BME280;27283;52.504;13.358;2023-01-08T09:53:17;100255.16;;;10.18;73.75
41596;BME280;27283;52.504;13.358;2023-01-08T09:55:54;100261.69;;;10.78;73.12
41596;BME280;27283;52.504;13.358;2023-01-08T09:58:44;100253.66;;;10.46;73.70
41596;BME280;27283;52.504;13.358;2023-01-08T10:01:21;100253.00;;;10.05;75.29
41596;BME280;27283;52.504;13.358;2023-01-08T10:04:02;100244.69;;;10.23;76.01
41596;BME280;27283;52.504;13.358;2023-01-08T10:06:35;100244.34;;;10.26;75.83
41596;BME280;27283;52.504;13.358;2023-01-08T10:09:12;100233.13;;;10.22;76.16
41596;BME280;27283;52.504;13.358;2023-01-08T10:11:47;100228.41;;;10.24;75.45
41596;BME280;27283;52.504;13.358;2023-01-08T10:14:25;100219.34;;;10.17;75.48
41596;BME280;27283;52.504;13.358;2023-01-08T10:17:02;100219.50;;;10.24;76.89
41596;BME280;27283;52.504;13.358;2023-01-08T10:19:38;100218.13;;;10.36;76.61
41596;BME280;27283;52.504;13.358;2023-01-08T10:22:23;100200.09;;;10.45;76.59
41596;BME280;27283;52.504;13.358;2023-01-08T10:25:05;100199.56;;;10.50;77.42
41596;BME280;27283;52.504;13.358;2023-01-08T10:27:49;100206.97;;;10.16;78.66
41596;BME280;27283;52.504;13.358;2023-01-08T10:30:35;100206.34;;;10.06;78.24
41596;BME280;27283;52.504;13.358;2023-01-08T10:33:19;100206.88;;;10.33;78.99
41596;BME280;27283;52.504;13.358;2023-01-08T10:35:57;100197.66;;;10.27;78.44
41596;BME280;27283;52.504;13.358;2023-01-08T10:38:35;100200.00;;;10.30;78.91
41596;BME280;27283;52.504;13.358;2023-01-08T10:41:12;100195.09;;;10.02;79.75
41596;BME280;27283;52.504;13.358;2023-01-08T10:43:53;100186.47;;;9.84;80.02
41596;BME280;27283;52.504;13.358;2023-01-08T10:46:31;100182.47;;;10.11;80.11
41596;BME280;27283;52.504;13.358;2023-01-08T10:49:19;100180.31;;;10.38;79.94
41596;BME280;27283;52.504;13.358;2023-01-08T10:51:55;100186.75;;;10.20;80.53
41596;BME280;27283;52.504;13.358;2023-01-08T10:54:36;100193.63;;;10.00;80.86
41596;BME280;27283;52.504;13.358;2023-01-08T10:57:20;100189.47;;;9.89;81.78
41596;BME280;27283;52.504;13.358;2023-01-08T10:59:54;100188.16;;;9.85;81.41
41596;BME280;27283;52.504;13.358;2023-01-08T11:02:42;100179.16;;;10.01;81.57
41596;BME280;27283;52.504;13.358;2023-01-08T11:05:18;100181.25;;;9.82;81.04
41596;BME280;27283;52.504;13.358;2023-01-08T11:07:58;100174.63;;;9.62;82.75
41596;BME280;27283;52.504;13.358;2023-01-08T11:10:37;100171.09;;;10.01;80.42
41596;BME280;27283;52.504;13.358;2023-01-08T11:13:17;100169.72;;;10.05;81.13
41596;BME280;27283;52.504;13.358;2023-01-08T11:16:01;100157.91;;;10.14;79.98
41596;BME280;27283;52.504;13.358;2023-01-08T11:18:42;100154.84;;;10.25;80.66
41596;BME280;27283;52.504;13.358;2023-01-08T11:21:19;100154.66;;;10.27;79.61
41596;BME280;27283;52.504;13.358;2023-01-08T11:24:10;100159.63;;;10.07;79.91
41596;BME280;27283;52.504;13.358;2023-01-08T11:26:52;100149.28;;;10.27;79.87
41596;BME280;27283;52.504;13.358;2023-01-08T11:29:35;100148.22;;;10.59;78.70
41596;BME280;27283;52.504;13.358;2023-01-08T11:32:26;100128.34;;;10.45;77.86
41596;BME280;27283;52.504;13.358;2023-01-08T11:35:12;100131.31;;;10.51;78.31
41596;BME280;27283;52.504;13.358;2023-01-08T11:37:50;100131.94;;;10.76;78.38
41596;BME280;27283;52.504;13.358;2023-01-08T11:40:37;100128.25;;;10.39;76.64
41596;BME280;27283;52.504;13.358;2023-01-08T11:43:20;100126.94;;;10.03;78.52
41596;BME280;27283;52.504;13.358;2023-01-08T11:46:10;100137.31;;;10.29;78.58
41596;BME280;27283;52.504;13.358;2023-01-08T11:49:22;100140.56;;;10.71;77.01
41596;BME280;27283;52.504;13.358;2023-01-08T11:52:08;100130.06;;;10.38;77.37
41596;BME280;27283;52.504;13.358;2023-01-08T11:55:05;100122.25;;;10.28;78.48
41596;BME280;27283;52.504;13.358;2023-01-08T11:57:51;100125.97;;;10.66;77.14
41596;BME280;27283;52.504;13.358;2023-01-08T12:00:37;100121.19;;;10.38;77.24
41596;BME280;27283;52.504;13.358;2023-01-08T12:03:27;100109.63;;;10.52;77.16
41596;BME280;27283;52.504;13.358;2023-01-08T12:06:09;100112.53;;;10.66;76.56
41596;BME280;27283;52.504;13.358;2023-01-08T12:08:57;100101.91;;;10.72;76.40
41596;BME280;27283;52.504;13.358;2023-01-08T12:11:37;100091.44;;;10.39;77.30
41596;BME280;27283;52.504;13.358;2023-01-08T12:14:38;100088.22;;;10.44;77.53
41596;BME280;27283;52.504;13.358;2023-01-08T12:17:49;100093.03;;;10.49;77.39
41596;BME280;27283;52.504;13.358;2023-01-08T12:20:35;100098.56;;;10.70;76.71
41596;BME280;27283;52.504;13.358;2023-01-08T12:23:17;100094.69;;;10.88;75.13
41596;BME280;27283;52.504;13.358;2023-01-08T12:26:11;100100.47;;;10.99;74.79
41596;BME280;27283;52.504;13.358;2023-01-08T12:29:14;100092.13;;;10.56;75.53
41596;BME280;27283;52.504;13.358;2023-01-08T12:32:09;100081.69;;;10.61;75.27
41596;BME280;27283;52.504;13.358;2023-01-08T12:34:52;100078.16;;;10.76;74.88
41596;BME280;27283;52.504;13.358;2023-01-08T12:37:30;100079.34;;;10.73;74.72
41596;BME280;27283;52.504;13.358;2023-01-08T12:40:13;100089.59;;;10.93;74.52
41596;BME280;27283;52.504;13.358;2023-01-08T12:42:48;100095.06;;;10.85;74.94
41596;BME280;27283;52.504;13.358;2023-01-08T12:45:31;100087.38;;;10.81;74.69
41596;BME280;27283;52.504;13.358;2023-01-08T12:48:07;100087.09;;;10.91;74.87
41596;BME280;27283;52.504;13.358;2023-01-08T12:50:50;100076.06;;;10.86;75.07
41596;BME280;27283;52.504;13.358;2023-01-08T12:53:33;100085.44;;;10.90;74.22
41596;BME280;27283;52.504;13.358;2023-01-08T12:56:12;100084.22;;;10.78;74.96
41596;BME280;27283;52.504;13.358;2023-01-08T12:59:04;100080.31;;;10.80;74.89
41596;BME280;27283;52.504;13.358;2023-01-08T13:01:44;100080.59;;;10.86;74.01
41596;BME280;27283;52.504;13.358;2023-01-08T13:04:18;100074.47;;;10.77;74.64
41596;BME280;27283;52.504;13.358;2023-01-08T13:06:57;100070.84;;;10.70;74.51
41596;BME280;27283;52.504;13.358;2023-01-08T13:09:31;100069.13;;;10.39;76.16
41596;BME280;27283;52.504;13.358;2023-01-08T13:12:04;100071.53;;;10.49;75.82
41596;BME280;27283;52.504;13.358;2023-01-08T13:14:45;100068.13;;;10.55;75.31
41596;BME280;27283;52.504;13.358;2023-01-08T13:17:23;100072.69;;;10.69;75.48
41596;BME280;27283;52.504;13.358;2023-01-08T13:19:59;100067.59;;;10.74;75.36
41596;BME280;27283;52.504;13.358;2023-01-08T13:22:34;100063.94;;;10.52;75.89
41596;BME280;27283;52.504;13.358;2023-01-08T13:27:55;100058.41;;;10.54;76.23
41596;BME280;27283;52.504;13.358;2023-01-08T13:30:41;100060.91;;;10.55;76.25
41596;BME280;27283;52.504;13.358;2023-01-08T13:33:27;100057.03;;;10.88;75.25
41596;BME280;27283;52.504;13.358;2023-01-08T13:36:25;100050.53;;;10.67;75.42
41596;BME280;27283;52.504;13.358;2023-01-08T13:39:21;100050.72;;;10.66;76.18
41596;BME280;27283;52.504;13.358;2023-01-08T13:42:00;100052.19;;;10.30;76.95
41596;BME280;27283;52.504;13.358;2023-01-08T13:44:38;100046.59;;;10.40;76.52
41596;BME280;27283;52.504;13.358;2023-01-08T13:47:24;100041.56;;;10.37;76.66
41596;BME280;27283;52.504;13.358;2023-01-08T13:50:01;100040.13;;;10.49;77.04